Time;durP1;ratioP1;P1;durP2;ratioP2;P2;SDS_P1;SDS_P2;PMS_P1;PMS_P2;Temp;Humidity;BMP_temperature;BMP_pressure;BME280_temperature;BME280_humidity;BME280_pressure;Samples;Min_cycle;Max_cycle;Signal;HPM_P1;HPM_P2
2022/12/17 13:07:23;;;;;;;;;;;;;;;-4.24;85.59;100845.88;5002623;28;19914;-69
2022/12/17 13:09:50;;;;;;;;;;;;;;;-4.25;85.43;100839.81;5000820;28;19918;-69
2022/12/17 13:12:18;;;;;;;;;;;;;;;-4.23;85.70;100845.81;5001922;28;19972;-68
2022/12/17 13:14:49;;;;;;;;;;;;;;;-4.23;85.92;100844.94;5003314;28;19945;-69
2022/12/17 13:17:17;;;;;;;;;;;;;;;-4.27;85.64;100849.53;5003059;28;19933;-68
2022/12/17 13:19:44;;;;;;;;;;;;;;;-4.24;85.93;100853.75;4985334;28;19913;-68
2022/12/17 13:22:13;;;;;;;;;;;;;;;-4.26;85.83;100856.47;5000922;28;19921;-69
2022/12/17 13:24:38;;;;;;;;;;;;;;;-4.24;86.08;100851.97;5003250;28;19935;-69
2022/12/17 13:27:04;;;;;;;;;;;;;;;-4.26;85.46;100848.59;5002672;28;20000;-70
2022/12/17 13:29:34;;;;;;;;;;;;;;;-4.27;85.97;100854.78;5001830;28;19922;-70
2022/12/17 13:31:59;;;;;;;;;;;;;;;-4.29;85.81;100854.00;5002152;28;19917;-70
2022/12/17 13:34:47;;;;;;;;;;;;;;;-4.28;85.49;100858.34;5001705;28;19914;-71
2022/12/17 13:37:13;;;;;;;;;;;;;;;-4.30;85.17;100853.16;4977468;28;20275;-69
2022/12/17 13:39:56;;;;;;;;;;;;;;;-4.29;85.29;100849.63;4999010;28;19918;-68
2022/12/17 13:42:29;;;;;;;;;;;;;;;-4.28;85.33;100847.84;4998999;28;19988;-69
2022/12/17 13:44:55;;;;;;;;;;;;;;;-4.30;85.11;100853.16;5000131;28;19972;-69
2022/12/17 13:47:32;;;;;;;;;;;;;;;-4.30;85.48;100853.16;5001249;28;19921;-69
2022/12/17 13:49:58;;;;;;;;;;;;;;;-4.29;84.79;100848.75;4996844;28;19964;-69
2022/12/17 13:52:26;;;;;;;;;;;;;;;-4.28;84.78;100835.56;4999149;28;19917;-68
2022/12/17 13:54:52;;;;;;;;;;;;;;;-4.27;84.36;100844.31;5001402;28;19914;-69
2022/12/17 13:57:24;;;;;;;;;;;;;;;-4.29;84.16;100854.00;5004778;28;20468;-69
2022/12/17 13:59:51;;;;;;;;;;;;;;;-4.29;84.65;100854.88;5002225;28;20393;-69
2022/12/17 14:02:22;;;;;;;;;;;;;;;-4.32;83.67;100852.41;5001619;28;20299;-70
2022/12/17 14:04:50;;;;;;;;;;;;;;;-4.34;84.34;100853.44;5002874;28;19914;-70
2022/12/17 14:07:15;;;;;;;;;;;;;;;-4.34;83.90;100848.22;5002282;28;19913;-69
2022/12/17 14:09:42;;;;;;;;;;;;;;;-4.36;83.88;100853.53;5003033;28;20338;-68
2022/12/17 14:12:23;;;;;;;;;;;;;;;-4.37;83.97;100845.75;5004830;28;20370;-69
2022/12/17 14:15:18;;;;;;;;;;;;;;;-4.39;83.76;100851.06;5003048;28;19981;-69
2022/12/17 14:17:44;;;;;;;;;;;;;;;-4.42;83.36;100842.53;4992275;28;19928;-69
2022/12/17 14:20:15;;;;;;;;;;;;;;;-4.40;83.95;100845.91;4999670;28;20369;-69
2022/12/17 14:22:42;;;;;;;;;;;;;;;-4.41;83.67;100839.00;5003712;28;19922;-69
2022/12/17 14:25:21;;;;;;;;;;;;;;;-4.36;84.25;100847.44;5001636;28;19953;-70
2022/12/17 14:28:00;;;;;;;;;;;;;;;-4.36;84.53;100848.28;5004225;28;19964;-70
2022/12/17 14:30:31;;;;;;;;;;;;;;;-4.36;84.42;100850.06;5002040;28;20310;-70
2022/12/17 14:32:57;;;;;;;;;;;;;;;-4.38;83.75;100847.53;4999814;28;19918;-70
2022/12/17 14:35:23;;;;;;;;;;;;;;;-4.39;83.86;100842.38;5004116;28;19914;-70
2022/12/17 14:37:48;;;;;;;;;;;;;;;-4.37;84.04;100857.06;4999488;28;19928;-70
2022/12/17 14:40:14;;;;;;;;;;;;;;;-4.34;84.25;100849.03;5003237;28;19928;-69
2022/12/17 14:42:39;;;;;;;;;;;;;;;-4.36;83.20;100848.28;5003937;28;19980;-69
2022/12/17 14:45:19;;;;;;;;;;;;;;;-4.35;84.26;100852.59;5001693;28;19917;-70
2022/12/17 14:48:03;;;;;;;;;;;;;;;-4.33;84.67;100852.50;5001296;28;19918;-70
2022/12/17 14:50:35;;;;;;;;;;;;;;;-4.32;85.26;100857.66;4917358;28;19922;-70
2022/12/17 14:53:02;;;;;;;;;;;;;;;-4.37;84.00;100859.69;4907783;28;19932;-70
2022/12/17 14:55:32;;;;;;;;;;;;;;;-4.36;84.23;100855.31;4923359;28;19914;-70
2022/12/17 14:58:12;;;;;;;;;;;;;;;-4.35;84.66;100857.81;5001010;28;20279;-69
2022/12/17 15:00:45;;;;;;;;;;;;;;;-4.33;84.78;100857.75;5001666;28;20358;-69
2022/12/17 15:03:17;;;;;;;;;;;;;;;-4.31;84.93;100858.50;5000301;28;19996;-70
2022/12/17 15:05:50;;;;;;;;;;;;;;;-4.35;84.21;100857.81;4998442;28;19913;-70
2022/12/17 15:08:15;;;;;;;;;;;;;;;-4.31;84.96;100866.34;5002032;28;20021;-69
2022/12/17 15:10:40;;;;;;;;;;;;;;;-4.32;84.27;100862.91;4999760;28;20008;-70
2022/12/17 15:13:06;;;;;;;;;;;;;;;-4.30;84.75;100858.41;5003524;28;20504;-69
2022/12/17 15:15:31;;;;;;;;;;;;;;;-4.27;85.07;100867.91;4996102;28;19969;-70
2022/12/17 15:17:56;;;;;;;;;;;;;;;-4.25;84.69;100868.66;5000770;28;19928;-69
2022/12/17 15:20:22;;;;;;;;;;;;;;;-4.28;84.38;100864.41;4999599;28;20335;-69
2022/12/17 15:22:47;;;;;;;;;;;;;;;-4.28;84.51;100867.03;5003313;28;19929;-68
2022/12/17 15:25:13;;;;;;;;;;;;;;;-4.23;85.16;100868.53;5004036;28;19936;-68
2022/12/17 15:27:38;;;;;;;;;;;;;;;-4.22;84.72;100870.25;4996855;28;19914;-68
2022/12/17 15:30:04;;;;;;;;;;;;;;;-4.22;84.61;100883.34;5004185;28;19917;-68
2022/12/17 15:32:29;;;;;;;;;;;;;;;-4.22;85.06;100878.09;5001470;28;19921;-68
2022/12/17 15:34:54;;;;;;;;;;;;;;;-4.23;84.61;100874.66;5002475;28;19921;-68
2022/12/17 15:37:25;;;;;;;;;;;;;;;-4.22;84.61;100872.88;5003506;28;19928;-69
2022/12/17 15:39:51;;;;;;;;;;;;;;;-4.21;84.87;100862.28;4992366;28;19928;-69
2022/12/17 15:45:00;;;;;;;;;;;;;;;-4.16;85.28;100875.13;5001802;28;19917;-70
2022/12/17 15:47:25;;;;;;;;;;;;;;;-4.16;85.33;100869.88;4997504;28;19918;-70
2022/12/17 15:49:50;;;;;;;;;;;;;;;-4.15;84.93;100874.19;5002075;28;19932;-70
2022/12/17 15:52:16;;;;;;;;;;;;;;;-4.14;85.46;100863.63;4998222;28;19932;-69
2022/12/17 15:54:42;;;;;;;;;;;;;;;-4.14;85.15;100863.63;5001167;28;20019;-71
2022/12/17 15:57:07;;;;;;;;;;;;;;;-4.14;84.78;100858.38;5001781;28;20886;-71
2022/12/17 15:59:32;;;;;;;;;;;;;;;-4.13;84.65;100854.81;5000275;28;19918;-72
2022/12/17 16:01:58;;;;;;;;;;;;;;;-4.14;84.79;100853.13;5000812;28;19918;-71
2022/12/17 16:04:23;;;;;;;;;;;;;;;-4.13;84.72;100860.06;5000320;28;20263;-70
2022/12/17 16:06:49;;;;;;;;;;;;;;;-4.15;84.04;100853.22;4999764;28;19979;-71
2022/12/17 16:09:14;;;;;;;;;;;;;;;-4.15;84.54;100855.84;5003439;28;19924;-70
2022/12/17 16:11:39;;;;;;;;;;;;;;;-4.13;84.65;100861.84;4996120;28;19917;-70
2022/12/17 16:14:04;;;;;;;;;;;;;;;-4.13;84.60;100859.22;5003308;28;19920;-70
2022/12/17 16:16:33;;;;;;;;;;;;;;;-4.11;85.28;100857.34;5000984;28;19921;-70
2022/12/17 16:19:00;;;;;;;;;;;;;;;-4.11;85.06;100850.31;5002856;28;19994;-69
2022/12/17 16:21:31;;;;;;;;;;;;;;;-4.09;85.23;100851.09;5003057;28;19964;-70
2022/12/17 16:23:56;;;;;;;;;;;;;;;-4.12;84.07;100859.13;5000225;28;19945;-70
2022/12/17 16:26:21;;;;;;;;;;;;;;;-4.09;84.73;100853.72;5002996;28;19925;-70
2022/12/17 16:28:48;;;;;;;;;;;;;;;-4.07;85.08;100843.13;5002073;28;19914;-70
2022/12/17 16:31:15;;;;;;;;;;;;;;;-4.07;84.59;100843.13;4995127;28;19914;-71
2022/12/17 16:33:41;;;;;;;;;;;;;;;-4.07;83.97;100839.66;5001027;28;19924;-71
2022/12/17 16:38:43;;;;;;;;;;;;;;;-4.04;84.88;100849.97;5065107;23;20365;-68
2022/12/17 16:41:08;;;;;;;;;;;;;;;-4.06;83.87;100843.97;4971789;28;20753;-73
2022/12/17 16:43:34;;;;;;;;;;;;;;;-4.08;83.13;100846.69;4965832;28;20013;-72
2022/12/17 16:45:59;;;;;;;;;;;;;;;-4.11;82.68;100852.09;4969483;28;20275;-73
2022/12/17 16:48:24;;;;;;;;;;;;;;;-4.15;82.31;100843.56;4952501;28;19914;-70
2022/12/17 16:50:50;;;;;;;;;;;;;;;-4.15;82.39;100851.44;4967457;28;19968;-71
2022/12/17 16:53:16;;;;;;;;;;;;;;;-4.11;83.84;100863.44;4973661;28;20005;-73
2022/12/17 16:55:45;;;;;;;;;;;;;;;-4.06;84.14;100867.59;4969171;28;19929;-73
2022/12/17 16:58:10;;;;;;;;;;;;;;;-4.05;84.08;100864.00;4971217;28;20396;-73
2022/12/17 17:00:36;;;;;;;;;;;;;;;-4.04;83.79;100863.09;4969480;28;20008;-73
2022/12/17 17:03:03;;;;;;;;;;;;;;;-4.02;84.16;100864.69;4968864;28;19914;-73
2022/12/17 17:05:30;;;;;;;;;;;;;;;-3.98;83.91;100865.34;4964110;28;20555;-72
2022/12/17 17:07:55;;;;;;;;;;;;;;;-3.98;84.45;100847.81;4969066;28;20389;-72
2022/12/17 17:10:21;;;;;;;;;;;;;;;-3.95;84.13;100852.91;4972581;28;19914;-71
2022/12/17 17:12:46;;;;;;;;;;;;;;;-3.95;83.20;100866.00;4973084;28;20012;-72
2022/12/17 17:15:11;;;;;;;;;;;;;;;-3.97;83.44;100880.16;4965943;28;19918;-69
2022/12/17 17:17:37;;;;;;;;;;;;;;;-3.98;83.86;100884.53;4970992;28;20007;-72
2022/12/17 17:20:02;;;;;;;;;;;;;;;-3.99;83.38;100880.25;4967098;28;19915;-72
2022/12/17 17:22:27;;;;;;;;;;;;;;;-3.97;83.91;100886.25;4971573;28;20350;-72
2022/12/17 17:24:53;;;;;;;;;;;;;;;-4.11;80.74;100892.28;4972624;28;19914;-72
2022/12/17 17:27:18;;;;;;;;;;;;;;;-4.19;79.89;100883.19;4968092;28;19925;-72
2022/12/17 17:29:44;;;;;;;;;;;;;;;-4.14;81.44;100881.13;4969663;28;19918;-70
2022/12/17 17:32:09;;;;;;;;;;;;;;;-4.11;82.34;100881.78;4967593;28;20131;-70
2022/12/17 17:34:35;;;;;;;;;;;;;;;-4.08;82.98;100878.16;4952570;28;19918;-70
2022/12/17 17:37:00;;;;;;;;;;;;;;;-4.05;83.14;100883.22;4970790;28;20350;-68
2022/12/17 17:39:26;;;;;;;;;;;;;;;-4.06;82.71;100868.44;4974777;28;19914;-70
2022/12/17 17:41:51;;;;;;;;;;;;;;;-4.04;83.12;100873.59;4983648;28;20005;-69
2022/12/17 17:44:16;;;;;;;;;;;;;;;-4.03;83.32;100875.25;4981317;28;20012;-71
2022/12/17 17:46:42;;;;;;;;;;;;;;;-4.02;83.65;100869.09;4977226;28;19914;-69
2022/12/17 17:49:07;;;;;;;;;;;;;;;-4.00;83.51;100877.72;4982516;28;20286;-70
2022/12/17 17:51:36;;;;;;;;;;;;;;;-3.97;84.10;100888.88;4976822;28;19914;-68
2022/12/17 17:54:02;;;;;;;;;;;;;;;-3.96;84.10;100880.03;4977254;28;19921;-68
2022/12/17 17:56:29;;;;;;;;;;;;;;;-3.96;83.62;100887.09;4979847;28;19918;-68
2022/12/17 17:58:57;;;;;;;;;;;;;;;-3.95;84.04;100876.50;4976658;28;19976;-68
2022/12/17 18:01:24;;;;;;;;;;;;;;;-3.92;83.78;100891.22;4980600;28;19929;-68
2022/12/17 18:03:50;;;;;;;;;;;;;;;-3.92;83.64;100872.84;4977239;28;19960;-70
2022/12/17 18:06:17;;;;;;;;;;;;;;;-3.92;84.50;100884.22;4980508;28;19914;-69
2022/12/17 18:08:42;;;;;;;;;;;;;;;-3.89;84.33;100889.25;4982363;28;19914;-72
2022/12/17 18:11:10;;;;;;;;;;;;;;;-3.88;84.21;100890.13;4977941;28;19953;-71
2022/12/17 18:13:53;;;;;;;;;;;;;;;-3.90;83.73;100899.84;4982283;28;19954;-71
2022/12/17 18:16:20;;;;;;;;;;;;;;;-3.93;83.58;100902.66;4974836;28;19919;-72
2022/12/17 18:18:45;;;;;;;;;;;;;;;-3.92;84.03;100907.81;4978848;28;20275;-71
2022/12/17 18:21:12;;;;;;;;;;;;;;;-3.95;83.01;100915.03;4977562;28;19917;-71
2022/12/17 18:23:37;;;;;;;;;;;;;;;-4.00;83.18;100907.41;4978496;28;19914;-71
2022/12/17 18:26:04;;;;;;;;;;;;;;;-3.98;83.58;100900.28;4980315;28;19914;-70
2022/12/17 18:28:29;;;;;;;;;;;;;;;-3.99;83.65;100901.22;4978516;28;19929;-70
2022/12/17 18:30:54;;;;;;;;;;;;;;;-3.99;84.12;100890.75;4973524;28;19915;-70
2022/12/17 18:33:20;;;;;;;;;;;;;;;-3.98;83.70;100892.41;4979064;28;19922;-70
2022/12/17 18:35:45;;;;;;;;;;;;;;;-3.98;83.73;100899.44;4976931;28;19933;-71
2022/12/17 18:38:10;;;;;;;;;;;;;;;-3.98;84.07;100907.31;4980783;28;19925;-71
2022/12/17 18:40:35;;;;;;;;;;;;;;;-4.00;82.92;100906.56;4977473;28;19918;-71
2022/12/17 18:45:44;;;;;;;;;;;;;;;-4.06;83.13;100901.69;4982190;28;19926;-71
2022/12/17 18:48:10;;;;;;;;;;;;;;;-4.07;83.11;100908.69;4980525;28;20056;-70
2022/12/17 18:50:35;;;;;;;;;;;;;;;-4.09;83.82;100903.56;4984780;28;20370;-72
2022/12/17 18:53:00;;;;;;;;;;;;;;;-4.10;82.92;100914.97;4982670;28;19953;-73
2022/12/17 18:55:25;;;;;;;;;;;;;;;-4.13;83.14;100899.41;4984427;28;19914;-72
2022/12/17 18:57:51;;;;;;;;;;;;;;;-4.11;82.88;100904.56;4986053;28;19924;-72
2022/12/17 19:00:16;;;;;;;;;;;;;;;-4.07;83.74;100906.06;4980203;28;20318;-72
2022/12/17 19:02:42;;;;;;;;;;;;;;;-4.06;83.79;100899.06;4980463;28;19980;-72
2022/12/17 19:05:10;;;;;;;;;;;;;;;-4.06;83.41;100901.69;4981727;28;19965;-71
2022/12/17 19:07:38;;;;;;;;;;;;;;;-4.03;83.65;100904.09;4984451;28;19945;-70
2022/12/17 19:10:04;;;;;;;;;;;;;;;-4.04;83.47;100908.53;4984377;28;20318;-70
2022/12/17 19:12:29;;;;;;;;;;;;;;;-4.03;83.76;100904.09;4979154;28;19929;-71
2022/12/17 19:14:55;;;;;;;;;;;;;;;-4.02;82.81;100897.94;4978650;28;20004;-72
2022/12/17 19:17:20;;;;;;;;;;;;;;;-3.99;83.40;100900.38;4982830;28;19929;-72
2022/12/17 19:19:49;;;;;;;;;;;;;;;-3.98;83.52;100908.16;4978461;28;20271;-72
2022/12/17 19:22:14;;;;;;;;;;;;;;;-3.95;83.38;100907.16;4981154;28;19929;-72
2022/12/17 19:24:39;;;;;;;;;;;;;;;-3.99;83.09;100896.00;4980491;28;20246;-72
2022/12/17 19:27:05;;;;;;;;;;;;;;;-4.02;82.45;100895.31;4981059;28;19913;-73
2022/12/17 19:29:30;;;;;;;;;;;;;;;-4.04;82.72;100884.91;4983028;28;19922;-73
2022/12/17 19:31:58;;;;;;;;;;;;;;;-3.98;83.55;100879.28;4978034;28;20496;-71
2022/12/17 19:34:24;;;;;;;;;;;;;;;-3.95;83.88;100884.38;4985120;28;19921;-71
2022/12/17 19:36:49;;;;;;;;;;;;;;;-3.96;83.17;100892.31;4978142;28;20338;-70
2022/12/17 19:39:16;;;;;;;;;;;;;;;-3.98;82.01;100888.94;4983526;28;19921;-69
2022/12/17 19:41:41;;;;;;;;;;;;;;;-3.96;82.64;100894.94;4987050;28;19918;-71
2022/12/17 19:44:10;;;;;;;;;;;;;;;-3.94;83.10;100893.94;4980919;28;20401;-71
2022/12/17 19:46:35;;;;;;;;;;;;;;;-3.93;84.08;100894.78;4981089;28;20263;-69
2022/12/17 19:49:01;;;;;;;;;;;;;;;-3.90;83.38;100892.81;4978147;28;19929;-72
2022/12/17 19:51:27;;;;;;;;;;;;;;;-3.87;84.13;100891.78;4983461;28;19913;-72
2022/12/17 19:53:52;;;;;;;;;;;;;;;-3.87;84.20;100896.19;4981156;28;19914;-72
2022/12/17 19:56:22;;;;;;;;;;;;;;;-3.85;83.62;100897.78;4981359;28;19920;-72
2022/12/17 19:58:52;;;;;;;;;;;;;;;-3.84;84.33;100890.78;4981122;28;19965;-71
2022/12/17 20:01:21;;;;;;;;;;;;;;;-3.85;83.43;100879.41;4977907;28;19922;-71
2022/12/17 20:03:47;;;;;;;;;;;;;;;-3.81;83.84;100880.91;4980938;28;19964;-73
2022/12/17 20:06:13;;;;;;;;;;;;;;;-3.78;84.15;100890.41;4985063;28;19918;-74
2022/12/17 20:08:39;;;;;;;;;;;;;;;-3.76;84.36;100889.38;4979530;28;19914;-73
2022/12/17 20:11:31;;;;;;;;;;;;;;;-3.77;84.35;100886.84;4980030;28;19918;-74
2022/12/17 20:13:54;;;;;;;;;;;;;;;-3.74;84.73;100884.03;4980739;28;19933;-73
2022/12/17 20:16:20;;;;;;;;;;;;;;;-3.79;83.33;100881.72;4980665;28;20349;-73
2022/12/17 20:18:45;;;;;;;;;;;;;;;-3.76;84.45;100893.78;4978484;28;19924;-66
2022/12/17 20:21:10;;;;;;;;;;;;;;;-3.74;84.49;100890.13;4978684;28;20285;-66
2022/12/17 20:23:36;;;;;;;;;;;;;;;-3.72;84.19;100895.28;4983259;28;19976;-65
2022/12/17 20:26:05;;;;;;;;;;;;;;;-3.68;85.31;100893.31;4979964;28;19914;-65
2022/12/17 20:28:32;;;;;;;;;;;;;;;-3.68;84.91;100898.56;4982058;28;19924;-65
2022/12/17 20:30:57;;;;;;;;;;;;;;;-3.69;84.34;100900.38;4983169;28;19917;-64
2022/12/17 20:33:23;;;;;;;;;;;;;;;-3.70;84.44;100909.16;4977927;28;19944;-65
2022/12/17 20:35:48;;;;;;;;;;;;;;;-3.72;84.65;100906.63;4979958;28;19981;-65
2022/12/17 20:38:13;;;;;;;;;;;;;;;-3.71;85.23;100912.75;4980794;28;19961;-65
2022/12/17 20:40:39;;;;;;;;;;;;;;;-3.73;85.10;100904.94;4979406;28;19926;-65
2022/12/17 20:43:04;;;;;;;;;;;;;;;-3.73;84.89;100917.22;4981610;28;19921;-65
2022/12/17 20:45:30;;;;;;;;;;;;;;;-3.72;85.44;100916.28;4980319;28;19918;-65
2022/12/17 20:47:55;;;;;;;;;;;;;;;-3.74;85.41;100926.88;4983196;28;20001;-65
2022/12/17 20:50:20;;;;;;;;;;;;;;;-3.74;85.90;100916.38;4979027;28;19917;-66
2022/12/17 20:52:47;;;;;;;;;;;;;;;-3.71;85.71;100916.19;4975995;28;21284;-66
2022/12/17 20:55:13;;;;;;;;;;;;;;;-3.71;85.81;100905.69;4983275;28;20251;-66
2022/12/17 20:57:38;;;;;;;;;;;;;;;-3.72;85.73;100904.00;4977206;28;19918;-67
2022/12/17 21:00:03;;;;;;;;;;;;;;;-3.70;85.99;100898.66;4981735;28;19953;-65
2022/12/17 21:02:28;;;;;;;;;;;;;;;-3.71;85.70;100897.81;4981823;28;20286;-65
2022/12/17 21:04:54;;;;;;;;;;;;;;;-3.70;85.80;100899.53;4977635;28;19918;-68
2022/12/17 21:07:19;;;;;;;;;;;;;;;-3.72;86.07;100904.00;4977837;28;19937;-67
2022/12/17 21:09:44;;;;;;;;;;;;;;;-3.72;86.27;100900.53;4975561;28;19914;-67
2022/12/17 21:12:12;;;;;;;;;;;;;;;-3.72;86.76;100901.38;4982187;28;19918;-67
2022/12/17 21:14:37;;;;;;;;;;;;;;;-3.72;86.23;100904.00;4978026;28;20339;-68
2022/12/17 21:17:02;;;;;;;;;;;;;;;-3.72;85.95;100900.53;4962385;28;19925;-67
2022/12/17 21:19:28;;;;;;;;;;;;;;;-3.75;85.79;100900.72;4981249;28;19953;-67
2022/12/17 21:21:53;;;;;;;;;;;;;;;-3.76;86.58;100894.63;4979696;28;20093;-68
2022/12/17 21:24:18;;;;;;;;;;;;;;;-3.78;86.01;100883.38;4979431;28;20354;-68
2022/12/17 21:26:44;;;;;;;;;;;;;;;-3.76;85.71;100893.78;4979893;28;20204;-68
2022/12/17 21:29:10;;;;;;;;;;;;;;;-3.76;86.15;100883.28;4978405;28;20428;-66
2022/12/17 21:31:43;;;;;;;;;;;;;;;-3.77;85.55;100884.22;4981338;28;20009;-66
2022/12/17 21:34:10;;;;;;;;;;;;;;;-3.77;86.04;100885.06;4965723;28;20033;-67
2022/12/17 21:36:35;;;;;;;;;;;;;;;-3.73;85.79;100885.75;4980032;28;19925;-68
2022/12/17 21:39:01;;;;;;;;;;;;;;;-3.73;85.56;100880.50;4982540;28;19922;-66
2022/12/17 21:41:28;;;;;;;;;;;;;;;-3.75;85.99;100887.59;4977971;28;19919;-66
2022/12/17 21:43:54;;;;;;;;;;;;;;;-3.71;86.61;100881.25;4981024;28;20263;-66
2022/12/17 21:46:20;;;;;;;;;;;;;;;-3.72;86.35;100876.91;4981046;28;19918;-66
2022/12/17 21:48:45;;;;;;;;;;;;;;;-3.68;86.82;100880.22;4979895;28;19921;-65
2022/12/17 21:51:11;;;;;;;;;;;;;;;-3.63;86.35;100883.41;4981333;28;19925;-65
2022/12/17 21:53:40;;;;;;;;;;;;;;;-3.60;87.02;100877.94;4978228;28;20370;-66
2022/12/17 21:56:07;;;;;;;;;;;;;;;-3.61;85.85;100884.16;4977467;28;20005;-66
2022/12/17 21:58:33;;;;;;;;;;;;;;;-3.59;86.49;100887.53;4982166;28;20293;-66
2022/12/17 22:01:11;;;;;;;;;;;;;;;-3.58;86.10;100890.06;4973803;28;20286;-66
2022/12/17 22:03:37;;;;;;;;;;;;;;;-3.55;86.41;100891.66;4979459;28;19914;-66
2022/12/17 22:06:09;;;;;;;;;;;;;;;-3.54;87.08;100893.34;4972947;28;20437;-67
2022/12/17 22:08:34;;;;;;;;;;;;;;;-3.52;86.58;100901.97;4981773;28;20824;-67
2022/12/17 22:11:03;;;;;;;;;;;;;;;-3.50;86.59;100903.56;4979350;28;20009;-67
2022/12/17 22:16:12;;;;;;;;;;;;;;;-3.45;86.49;100900.69;4981660;28;19929;-67
2022/12/17 22:18:40;;;;;;;;;;;;;;;-3.43;86.51;100901.44;4983644;28;19922;-67
2022/12/17 22:21:05;;;;;;;;;;;;;;;-3.41;87.01;100893.47;4985948;28;19914;-67
2022/12/17 22:23:31;;;;;;;;;;;;;;;-3.40;86.97;100903.00;4985485;28;20008;-66
2022/12/17 22:25:57;;;;;;;;;;;;;;;-3.40;86.47;100900.38;4981077;28;19914;-66
2022/12/17 22:28:22;;;;;;;;;;;;;;;-3.38;87.23;100907.25;4985575;28;19973;-66
2022/12/17 22:33:31;;;;;;;;;;;;;;;-3.36;87.26;100904.50;4985593;28;20234;-65
2022/12/17 22:36:00;;;;;;;;;;;;;;;-3.33;87.43;100904.31;4957503;28;19924;-65
2022/12/17 22:38:27;;;;;;;;;;;;;;;-3.31;86.96;100913.81;4980320;28;20461;-65
2022/12/17 22:40:52;;;;;;;;;;;;;;;-3.29;87.05;100905.81;4984330;28;19961;-66
2022/12/17 22:43:29;;;;;;;;;;;;;;;-3.29;87.18;100897.94;4982674;28;19945;-66
2022/12/17 22:45:59;;;;;;;;;;;;;;;-3.28;87.00;100889.16;4982343;28;19957;-66
2022/12/17 22:48:24;;;;;;;;;;;;;;;-3.28;87.09;100886.53;4981966;28;19941;-66
2022/12/17 22:50:50;;;;;;;;;;;;;;;-3.26;87.33;100884.63;4983653;28;20301;-65
2022/12/17 22:53:15;;;;;;;;;;;;;;;-3.27;87.20;100887.34;4982254;28;19917;-66
2022/12/17 22:55:40;;;;;;;;;;;;;;;-3.27;87.36;100882.94;4980351;28;19918;-66
2022/12/17 22:58:06;;;;;;;;;;;;;;;-3.25;87.32;100890.72;4983129;28;19918;-66
2022/12/17 23:00:35;;;;;;;;;;;;;;;-3.25;86.95;100885.47;4983582;28;19915;-65
2022/12/17 23:03:01;;;;;;;;;;;;;;;-3.26;87.60;100881.19;4981959;28;19980;-66
2022/12/17 23:05:27;;;;;;;;;;;;;;;-3.27;87.30;100861.09;4982420;28;19914;-66
2022/12/17 23:07:52;;;;;;;;;;;;;;;-3.27;87.18;100867.19;4982288;28;20322;-66
2022/12/17 23:10:17;;;;;;;;;;;;;;;-3.24;87.37;100869.63;4979032;28;19925;-67
2022/12/17 23:12:55;;;;;;;;;;;;;;;-3.26;87.18;100863.63;4980445;28;19949;-67
2022/12/17 23:15:25;;;;;;;;;;;;;;;-3.24;87.10;100867.00;4980988;28;19921;-67
2022/12/17 23:17:51;;;;;;;;;;;;;;;-3.23;87.65;100866.06;4979357;28;19922;-66
2022/12/17 23:20:16;;;;;;;;;;;;;;;-3.22;87.70;100865.13;4977749;28;19921;-67
2022/12/17 23:22:42;;;;;;;;;;;;;;;-3.24;87.41;100861.75;4979241;28;19929;-67
2022/12/17 23:25:07;;;;;;;;;;;;;;;-3.22;87.29;100867.75;4976949;28;20294;-67
2022/12/17 23:27:33;;;;;;;;;;;;;;;-3.24;86.68;100863.53;4981980;28;19957;-67
2022/12/17 23:29:58;;;;;;;;;;;;;;;-3.26;86.99;100875.94;4984260;28;19941;-67
2022/12/17 23:32:23;;;;;;;;;;;;;;;-3.26;87.07;100868.88;4981179;28;19922;-67
2022/12/17 23:34:49;;;;;;;;;;;;;;;-3.25;86.87;100861.84;4984118;28;19922;-67
2022/12/17 23:37:14;;;;;;;;;;;;;;;-3.20;87.55;100865.03;4982306;28;20355;-66
2022/12/17 23:39:39;;;;;;;;;;;;;;;-3.17;87.24;100855.19;4978649;28;20147;-66
2022/12/17 23:42:04;;;;;;;;;;;;;;;-3.15;87.03;100857.72;4982564;28;19992;-66
2022/12/17 23:44:30;;;;;;;;;;;;;;;-3.14;86.98;100862.00;4981041;28;19924;-66
2022/12/17 23:46:55;;;;;;;;;;;;;;;-3.15;87.11;100865.59;4981062;28;20326;-66
2022/12/17 23:49:20;;;;;;;;;;;;;;;-3.16;86.52;100863.91;4982247;28;19965;-66
2022/12/17 23:51:45;;;;;;;;;;;;;;;-3.19;87.03;100857.06;4979371;28;20386;-66
2022/12/17 23:54:11;;;;;;;;;;;;;;;-3.14;87.12;100856.75;4982848;28;20401;-65
2022/12/17 23:56:36;;;;;;;;;;;;;;;-3.10;87.13;100863.53;4980238;28;20259;-65
2022/12/17 23:59:02;;;;;;;;;;;;;;;-3.11;87.22;100857.41;4983800;28;19953;-65
